Rye, New Hampshire
Current Conditions -  °F | °C
As of 5:58 PM on Saturday 25 Oct 2014 (Local Time) from KPSM Reporting Station
Broken Clouds Broken Clouds  
Wind Chill: 59°   Ceiling: 25000
Heat Index: 59°   Visibility: 10mi
Dew Point: 40°   Wind: 6mph
Humidity: 50%   Direction: 240°WSW
Pressure: 29.56"   Gusts: NA
Location:  43.01°N, 70.77°W
Report Text: KPSM 252158Z 24005KT 10SM BKN250 15/04 A2956 RMK AO2A SLP014 T01480044
Loading
Personal Weather Stations






























Interactive Weather Map
Tropical Storm Tracking
New forecast layout! Learn more

10-Day Weather Forecast

Advertisements
Track Severe Weather on mobile